Time,TemperatureF,DewpointF,PressureIn,WindDirection,WindDirectionDegrees,WindSpeedMPH,WindSpeedGustMPH,Humidity,HourlyPrecipIn,Conditions,Clouds,dailyrainin,SoftwareType,DateUTC
2014-01-24 00:01:00,15.1,3.7,30.12,SW,225,0.0,0.0,60,0.00,,,0.00,WUHU21623XXSP,2014-01-24 05:01:00,
2014-01-24 00:02:00,15.1,3.7,30.12,SW,225,0.0,0.0,60,0.00,,,0.00,WUHU21623XXSP,2014-01-24 05:02:00,
2014-01-24 00:07:00,15.0,3.7,30.12,South,180,0.0,0.0,60,0.00,,,0.00,WUHU21623XXSP,2014-01-24 05:07:00,
2014-01-24 00:10:00,15.6,4.2,30.12,SW,225,0.0,0.0,60,0.00,,,0.00,WUHU21623XXSP,2014-01-24 05:10:00,
2014-01-24 00:12:00,15.0,3.6,30.12,West,270,0.0,0.0,60,0.00,,,0.00,WUHU21623XXSP,2014-01-24 05:12:00,
2014-01-24 00:17:00,15.0,3.6,30.12,NNE,22,0.0,0.0,60,0.00,,,0.00,WUHU21623XXSP,2014-01-24 05:17:00,
2014-01-24 00:22:00,14.7,3.3,30.12,East,90,0.0,0.0,60,0.00,,,0.00,WUHU21623XXSP,2014-01-24 05:22:00,
2014-01-24 00:27:00,14.7,3.3,30.12,ENE,67,0.0,0.0,60,0.00,,,0.00,WUHU21623XXSP,2014-01-24 05:27:00,
2014-01-24 00:32:00,14.6,3.3,30.12,ENE,67,0.0,0.0,60,0.00,,,0.00,WUHU21623XXSP,2014-01-24 05:32:00,
2014-01-24 00:37:00,14.5,3.1,30.12,West,270,0.0,0.0,60,0.00,,,0.00,WUHU21623XXSP,2014-01-24 05:37:00,
2014-01-24 00:42:00,14.4,3.1,30.12,WNW,292,0.0,0.0,60,0.00,,,0.00,WUHU21623XXSP,2014-01-24 05:42:00,
2014-01-24 00:47:00,14.2,2.9,30.12,WSW,247,0.0,0.0,60,0.00,,,0.00,WUHU21623XXSP,2014-01-24 05:47:00,
2014-01-24 00:52:00,13.9,2.6,30.12,SE,135,0.0,0.0,60,0.00,,,0.00,WUHU21623XXSP,2014-01-24 05:52:00,
2014-01-24 00:57:00,13.9,3.0,30.12,SSE,157,0.0,0.0,61,0.00,,,0.00,WUHU21623XXSP,2014-01-24 05:57:00,
2014-01-24 01:02:00,13.7,2.8,30.12,South,180,0.0,0.0,61,0.00,,,0.00,WUHU21623XXSP,2014-01-24 06:02:00,
2014-01-24 01:10:00,13.6,2.7,30.12,South,180,0.0,0.0,61,0.00,,,0.00,WUHU21623XXSP,2014-01-24 06:10:00,
2014-01-24 01:15:00,13.6,2.6,30.13,NNW,337,0.0,0.0,61,0.00,,,0.00,WUHU21623XXSP,2014-01-24 06:15:00,
2014-01-24 01:20:00,13.3,2.4,30.12,WNW,292,0.0,0.0,61,0.00,,,0.00,WUHU21623XXSP,2014-01-24 06:20:00,
2014-01-24 01:25:00,13.2,2.3,30.13,NNE,22,0.0,0.0,61,0.00,,,0.00,WUHU21623XXSP,2014-01-24 06:25:00,
2014-01-24 01:30:00,13.1,2.2,30.12,NW,315,0.0,0.0,61,0.00,,,0.00,WUHU21623XXSP,2014-01-24 06:30:00,
2014-01-24 01:35:00,13.1,2.2,30.13,ENE,67,0.0,0.0,61,0.00,,,0.00,WUHU21623XXSP,2014-01-24 06:35:00,
2014-01-24 01:40:00,13.0,2.1,30.13,NNE,22,0.0,0.0,61,0.00,,,0.00,WUHU21623XXSP,2014-01-24 06:40:00,
2014-01-24 01:45:00,13.0,2.1,30.12,NNE,22,0.0,0.0,61,0.00,,,0.00,WUHU21623XXSP,2014-01-24 06:45:00,
2014-01-24 01:50:00,13.0,2.1,30.12,NW,315,0.0,0.0,61,0.00,,,0.00,WUHU21623XXSP,2014-01-24 06:50:00,
2014-01-24 01:55:00,12.7,1.8,30.13,WSW,247,0.0,0.0,61,0.00,,,0.00,WUHU21623XXSP,2014-01-24 06:55:00,
2014-01-24 02:00:00,12.7,1.8,30.12,NNW,337,0.0,0.0,61,0.00,,,0.00,WUHU21623XXSP,2014-01-24 07:00:00,
2014-01-24 02:05:00,12.7,1.8,30.12,NNW,337,0.0,0.0,61,0.00,,,0.00,WUHU21623XXSP,2014-01-24 07:05:00,
2014-01-24 02:10:00,12.6,1.7,30.12,NNW,337,0.0,0.0,61,0.00,,,0.00,WUHU21623XXSP,2014-01-24 07:10:00,
2014-01-24 02:15:00,12.2,1.3,30.13,East,90,0.0,0.0,61,0.00,,,0.00,WUHU21623XXSP,2014-01-24 07:15:00,
2014-01-24 02:20:00,12.1,1.3,30.13,NW,315,0.0,0.0,61,0.00,,,0.00,WUHU21623XXSP,2014-01-24 07:20:00,
2014-01-24 02:25:00,12.1,1.2,30.13,East,90,0.0,0.0,61,0.00,,,0.00,WUHU21623XXSP,2014-01-24 07:25:00,
2014-01-24 02:30:00,12.0,1.2,30.13,SSE,157,0.0,0.0,61,0.00,,,0.00,WUHU21623XXSP,2014-01-24 07:30:00,
2014-01-24 02:35:00,12.0,1.2,30.13,WNW,292,0.0,0.0,61,0.00,,,0.00,WUHU21623XXSP,2014-01-24 07:35:00,
2014-01-24 02:40:00,11.8,0.9,30.13,SSE,157,0.0,0.0,61,0.00,,,0.00,WUHU21623XXSP,2014-01-24 07:40:00,
2014-01-24 02:45:00,11.7,0.9,30.13,NW,315,0.0,0.0,61,0.00,,,0.00,WUHU21623XXSP,2014-01-24 07:45:00,
2014-01-24 02:50:00,11.7,0.9,30.13,NW,315,0.0,0.0,61,0.00,,,0.00,WUHU21623XXSP,2014-01-24 07:50:00,
2014-01-24 02:55:00,11.6,0.8,30.14,WNW,292,2.0,2.0,61,0.00,,,0.00,WUHU21623XXSP,2014-01-24 07:55:00,
2014-01-24 03:00:00,11.6,0.8,30.14,WSW,247,0.0,2.0,61,0.00,,,0.00,WUHU21623XXSP,2014-01-24 08:00:00,
2014-01-24 03:10:00,11.5,0.7,30.14,East,90,0.0,0.0,61,0.00,,,0.00,WUHU21623XXSP,2014-01-24 08:10:00,
2014-01-24 03:15:00,11.5,0.7,30.13,NW,315,0.0,0.0,61,0.00,,,0.00,WUHU21623XXSP,2014-01-24 08:15:00,
2014-01-24 03:20:00,11.5,1.0,30.13,NE,45,0.0,0.0,62,0.00,,,0.00,WUHU21623XXSP,2014-01-24 08:20:00,
2014-01-24 03:25:00,11.4,1.0,30.13,West,270,0.0,0.0,62,0.00,,,0.00,WUHU21623XXSP,2014-01-24 08:25:00,
2014-01-24 03:30:00,11.4,0.9,30.13,WNW,292,0.0,0.0,62,0.00,,,0.00,WUHU21623XXSP,2014-01-24 08:30:00,
2014-01-24 03:35:00,11.3,0.9,30.13,NNW,337,1.6,1.6,62,0.00,,,0.00,WUHU21623XXSP,2014-01-24 08:35:00,
2014-01-24 03:40:00,11.3,0.9,30.13,NNW,337,0.0,1.6,62,0.00,,,0.00,WUHU21623XXSP,2014-01-24 08:40:00,
2014-01-24 03:45:00,11.3,0.8,30.13,South,180,0.0,1.6,62,0.00,,,0.00,WUHU21623XXSP,2014-01-24 08:45:00,
2014-01-24 03:50:00,11.2,0.8,30.13,NNW,337,0.0,0.0,62,0.00,,,0.00,WUHU21623XXSP,2014-01-24 08:50:00,
2014-01-24 03:55:00,11.2,0.8,30.13,NNW,337,0.0,0.0,62,0.00,,,0.00,WUHU21623XXSP,2014-01-24 08:55:00,
2014-01-24 04:00:00,11.2,0.7,30.13,South,180,0.0,0.0,62,0.00,,,0.00,WUHU21623XXSP,2014-01-24 09:00:00,
2014-01-24 04:10:00,11.1,0.7,30.13,South,180,0.0,0.0,62,0.00,,,0.00,WUHU21623XXSP,2014-01-24 09:10:00,
2014-01-24 04:15:00,10.8,0.3,30.14,SSE,157,0.0,0.0,62,0.00,,,0.00,WUHU21623XXSP,2014-01-24 09:15:00,
2014-01-24 04:20:00,10.7,0.3,30.13,SSE,157,0.0,0.0,62,0.00,,,0.00,WUHU21623XXSP,2014-01-24 09:20:00,
2014-01-24 04:25:00,10.7,0.3,30.14,SSW,202,0.0,0.0,62,0.00,,,0.00,WUHU21623XXSP,2014-01-24 09:25:00,
2014-01-24 04:30:00,10.7,0.2,30.14,NNW,337,0.0,0.0,62,0.00,,,0.00,WUHU21623XXSP,2014-01-24 09:30:00,
2014-01-24 04:35:00,10.6,0.2,30.14,NNW,337,0.0,0.0,62,0.00,,,0.00,WUHU21623XXSP,2014-01-24 09:35:00,
2014-01-24 04:40:00,10.6,0.2,30.14,South,180,0.0,0.0,62,0.00,,,0.00,WUHU21623XXSP,2014-01-24 09:40:00,
2014-01-24 04:45:00,10.6,0.1,30.14,South,180,0.0,0.0,62,0.00,,,0.00,WUHU21623XXSP,2014-01-24 09:45:00,
2014-01-24 04:50:00,10.5,0.1,30.14,WSW,247,0.0,0.0,62,0.00,,,0.00,WUHU21623XXSP,2014-01-24 09:50:00,
2014-01-24 04:55:00,10.5,0.1,30.14,SW,225,0.0,0.0,62,0.00,,,0.00,WUHU21623XXSP,2014-01-24 09:55:00,
2014-01-24 05:00:00,10.3,-0.1,30.14,NW,315,0.0,0.0,62,0.00,,,0.00,WUHU21623XXSP,2014-01-24 10:00:00,
2014-01-24 05:10:00,10.2,-0.2,30.15,NW,315,0.0,0.0,62,0.00,,,0.00,WUHU21623XXSP,2014-01-24 10:10:00,
2014-01-24 05:15:00,10.0,-0.4,30.15,NNW,337,0.0,0.0,62,0.00,,,0.00,WUHU21623XXSP,2014-01-24 10:15:00,
2014-01-24 05:20:00,10.0,-0.4,30.15,SW,225,0.0,0.0,62,0.00,,,0.00,WUHU21623XXSP,2014-01-24 10:20:00,
2014-01-24 05:25:00,9.9,-0.5,30.15,NNW,337,0.0,0.0,62,0.00,,,0.00,WUHU21623XXSP,2014-01-24 10:25:00,
2014-01-24 05:30:00,9.7,-0.7,30.15,NNW,337,0.0,0.0,62,0.00,,,0.00,WUHU21623XXSP,2014-01-24 10:30:00,
2014-01-24 05:35:00,9.7,-0.7,30.15,SE,135,0.0,0.0,62,0.00,,,0.00,WUHU21623XXSP,2014-01-24 10:35:00,
2014-01-24 05:40:00,9.6,-0.7,30.15,North,0,0.0,0.0,62,0.00,,,0.00,WUHU21623XXSP,2014-01-24 10:40:00,
2014-01-24 05:45:00,9.6,-0.8,30.16,North,0,0.0,0.0,62,0.00,,,0.00,WUHU21623XXSP,2014-01-24 10:45:00,
2014-01-24 05:50:00,9.6,-0.8,30.16,North,0,0.0,0.0,62,0.00,,,0.00,WUHU21623XXSP,2014-01-24 10:50:00,
2014-01-24 05:55:00,9.6,-0.8,30.16,WNW,292,0.0,0.0,62,0.00,,,0.00,WUHU21623XXSP,2014-01-24 10:55:00,
2014-01-24 06:00:00,9.5,-0.8,30.17,SSW,202,0.0,0.0,62,0.00,,,0.00,WUHU21623XXSP,2014-01-24 11:00:00,
2014-01-24 06:05:00,9.5,-0.9,30.17,SSW,202,0.0,0.0,62,0.00,,,0.00,WUHU21623XXSP,2014-01-24 11:05:00,
2014-01-24 06:10:00,9.4,-1.0,30.17,East,90,0.0,0.0,62,0.00,,,0.00,WUHU21623XXSP,2014-01-24 11:10:00,
2014-01-24 06:15:00,9.1,-1.2,30.17,NE,45,0.0,0.0,62,0.00,,,0.00,WUHU21623XXSP,2014-01-24 11:15:00,
2014-01-24 06:20:00,9.1,-1.2,30.18,ENE,67,0.0,0.0,62,0.00,,,0.00,WUHU21623XXSP,2014-01-24 11:20:00,
2014-01-24 06:25:00,9.1,-1.2,30.18,ENE,67,0.0,0.0,62,0.00,,,0.00,WUHU21623XXSP,2014-01-24 11:25:00,
2014-01-24 06:30:00,8.9,-1.5,30.18,WNW,292,0.0,0.0,62,0.00,,,0.00,WUHU21623XXSP,2014-01-24 11:30:00,
2014-01-24 06:35:00,8.7,-1.7,30.18,WNW,292,0.0,0.0,62,0.00,,,0.00,WUHU21623XXSP,2014-01-24 11:35:00,
2014-01-24 06:40:00,8.6,-1.7,30.19,WNW,292,0.0,0.0,62,0.00,,,0.00,WUHU21623XXSP,2014-01-24 11:40:00,
2014-01-24 06:45:00,8.6,-1.7,30.19,WNW,292,0.0,0.0,62,0.00,,,0.00,WUHU21623XXSP,2014-01-24 11:45:00,
2014-01-24 06:50:00,8.6,-1.7,30.19,West,270,0.0,0.0,62,0.00,,,0.00,WUHU21623XXSP,2014-01-24 11:50:00,
2014-01-24 06:55:00,8.6,-1.8,30.19,West,270,0.0,0.0,62,0.00,,,0.00,WUHU21623XXSP,2014-01-24 11:55:00,
2014-01-24 07:00:00,8.3,-2.0,30.19,SW,225,0.0,0.0,62,0.00,,,0.00,WUHU21623XXSP,2014-01-24 12:00:00,
2014-01-24 07:05:00,8.3,-2.0,30.19,West,270,0.0,0.0,62,0.00,,,0.00,WUHU21623XXSP,2014-01-24 12:05:00,
2014-01-24 07:10:00,8.3,-2.0,30.19,WNW,292,0.0,0.0,62,0.00,,,0.00,WUHU21623XXSP,2014-01-24 12:10:00,
2014-01-24 07:15:00,8.3,-2.0,30.20,South,180,0.0,0.0,62,0.00,,,0.00,WUHU21623XXSP,2014-01-24 12:15:00,
2014-01-24 07:20:00,8.2,-2.1,30.20,West,270,0.0,0.0,62,0.00,,,0.00,WUHU21623XXSP,2014-01-24 12:20:00,
2014-01-24 07:25:00,8.1,-2.2,30.20,West,270,0.0,0.0,62,0.00,,,0.00,WUHU21623XXSP,2014-01-24 12:25:00,
2014-01-24 07:30:00,8.1,-2.2,30.20,WNW,292,0.0,0.0,62,0.00,,,0.00,WUHU21623XXSP,2014-01-24 12:30:00,
2014-01-24 07:35:00,8.1,-2.2,30.20,WNW,292,0.0,0.0,62,0.00,,,0.00,WUHU21623XXSP,2014-01-24 12:35:00,
2014-01-24 07:40:00,7.9,-2.4,30.20,WNW,292,0.0,0.0,62,0.00,,,0.00,WUHU21623XXSP,2014-01-24 12:40:00,
2014-01-24 07:45:00,7.9,-2.4,30.20,SW,225,0.0,0.0,62,0.00,,,0.00,WUHU21623XXSP,2014-01-24 12:45:00,
2014-01-24 07:50:00,7.8,-2.4,30.20,SW,225,0.0,0.0,62,0.00,,,0.00,WUHU21623XXSP,2014-01-24 12:50:00,
2014-01-24 07:55:00,7.8,-2.4,30.20,WSW,247,0.0,0.0,62,0.00,,,0.00,WUHU21623XXSP,2014-01-24 12:55:00,
2014-01-24 08:00:00,7.8,-2.5,30.21,SW,225,0.0,0.0,62,0.00,,,0.00,WUHU21623XXSP,2014-01-24 13:00:00,
2014-01-24 08:05:00,7.6,-2.7,30.21,South,180,2.0,2.0,62,0.00,,,0.00,WUHU21623XXSP,2014-01-24 13:05:00,
2014-01-24 08:10:00,7.6,-2.7,30.21,WNW,292,0.0,2.0,62,0.00,,,0.00,WUHU21623XXSP,2014-01-24 13:10:00,
2014-01-24 08:15:00,7.8,-2.5,30.22,NW,315,0.0,0.0,62,0.00,,,0.00,WUHU21623XXSP,2014-01-24 13:15:00,
2014-01-24 08:20:00,7.5,-2.7,30.22,NNE,22,0.0,0.0,62,0.00,,,0.00,WUHU21623XXSP,2014-01-24 13:20:00,
2014-01-24 08:25:00,7.5,-2.7,30.22,SSE,157,0.0,0.0,62,0.00,,,0.00,WUHU21623XXSP,2014-01-24 13:25:00,
2014-01-24 08:30:00,7.7,-2.6,30.22,WNW,292,0.0,0.0,62,0.00,,,0.00,WUHU21623XXSP,2014-01-24 13:30:00,
2014-01-24 08:35:00,7.7,-2.6,30.22,NNW,337,3.8,3.8,62,0.00,,,0.00,WUHU21623XXSP,2014-01-24 13:35:00,
2014-01-24 08:40:00,7.3,-3.0,30.22,NNW,337,3.1,3.8,62,0.00,,,0.00,WUHU21623XXSP,2014-01-24 13:40:00,
2014-01-24 08:45:00,7.0,-3.6,30.22,West,270,2.9,3.1,61,0.00,,,0.00,WUHU21623XXSP,2014-01-24 13:45:00,
2014-01-24 08:50:00,7.0,-3.6,30.22,NW,315,0.7,2.9,61,0.00,,,0.00,WUHU21623XXSP,2014-01-24 13:50:00,
2014-01-24 08:55:00,7.0,-3.6,30.22,NNE,22,2.2,2.2,61,0.00,,,0.00,WUHU21623XXSP,2014-01-24 13:55:00,
2014-01-24 09:00:00,6.7,-3.8,30.22,NW,315,8.1,8.1,61,0.00,,,0.00,WUHU21623XXSP,2014-01-24 14:00:00,
2014-01-24 09:07:00,6.8,-6.7,30.19,WNW,292,2.0,8.1,53,0.00,,,0.00,WUHU21623XXSP,2014-01-24 14:07:00,
2014-01-24 09:09:00,6.8,-6.7,30.19,WNW,292,8.7,8.7,53,0.00,,,0.00,WUHU21623XXSP,2014-01-24 14:09:00,
2014-01-24 09:10:00,11.1,0.3,30.22,NW,315,2.5,2.5,61,0.00,,,0.00,WUHU21623XXSP,2014-01-24 14:10:00,
2014-01-24 09:11:00,6.9,-7.1,30.19,WNW,292,6.0,8.7,52,0.00,,,0.00,WUHU21623XXSP,2014-01-24 14:11:00,
2014-01-24 09:13:00,6.8,-7.1,30.18,SW,225,4.3,8.7,52,0.00,,,0.00,WUHU21623XXSP,2014-01-24 14:13:00,
2014-01-24 09:15:00,6.8,-6.7,30.18,North,0,6.3,8.7,53,0.00,,,0.00,WUHU21623XXSP,2014-01-24 14:15:00,
2014-01-24 09:17:00,6.8,-6.7,30.18,West,270,5.4,8.7,53,0.00,,,0.00,WUHU21623XXSP,2014-01-24 14:17:00,
2014-01-24 09:20:00,6.8,-6.7,30.18,North,0,7.4,7.4,53,0.00,,,0.00,WUHU21623XXSP,2014-01-24 14:20:00,
2014-01-24 09:22:00,6.8,-6.7,30.18,NE,45,0.0,7.4,53,0.00,,,0.00,WUHU21623XXSP,2014-01-24 14:22:00,
2014-01-24 09:24:00,6.8,-6.3,30.18,WNW,292,0.0,7.4,54,0.00,,,0.00,WUHU21623XXSP,2014-01-24 14:24:00,
2014-01-24 09:26:00,6.8,-6.3,30.17,WNW,292,3.8,7.4,54,0.00,,,0.00,WUHU21623XXSP,2014-01-24 14:26:00,
2014-01-24 09:28:00,17.1,3.3,30.17,North,0,5.6,7.4,54,0.00,,,0.00,WUHU21623XXSP,2014-01-24 14:28:00,
2014-01-24 09:30:00,17.5,3.6,30.17,South,180,0.0,5.6,54,0.00,,,0.00,WUHU21623XXSP,2014-01-24 14:30:00,
2014-01-24 09:32:00,17.1,3.7,30.17,West,270,0.0,5.6,55,0.00,,,0.00,WUHU21623XXSP,2014-01-24 14:32:00,
2014-01-24 09:35:00,17.1,3.7,30.17,NW,315,4.9,5.6,55,0.00,,,0.00,WUHU21623XXSP,2014-01-24 14:35:00,
2014-01-24 09:37:00,17.1,3.7,30.17,NNE,22,2.7,5.6,55,0.00,,,0.00,WUHU21623XXSP,2014-01-24 14:37:00,
2014-01-24 09:39:00,16.9,3.5,30.17,NW,315,2.0,4.9,55,0.00,,,0.00,WUHU21623XXSP,2014-01-24 14:39:00,
2014-01-24 09:41:00,16.9,3.5,30.17,NNW,337,8.5,8.5,55,0.00,,,0.00,WUHU21623XXSP,2014-01-24 14:41:00,
2014-01-24 09:43:00,16.6,2.8,30.17,East,90,0.0,8.5,54,0.00,,,0.00,WUHU21623XXSP,2014-01-24 14:43:00,
2014-01-24 09:45:00,16.4,2.6,30.17,NNW,337,3.1,8.5,54,0.00,,,0.00,WUHU21623XXSP,2014-01-24 14:45:00,
2014-01-24 09:47:00,16.1,2.4,30.17,NW,315,5.8,8.5,54,0.00,,,0.00,WUHU21623XXSP,2014-01-24 14:47:00,
2014-01-24 09:50:00,16.3,2.6,30.17,NNW,337,4.3,8.5,54,0.00,,,0.00,WUHU21623XXSP,2014-01-24 14:50:00,
2014-01-24 09:55:00,15.9,1.8,30.17,NNW,337,4.7,5.8,53,0.00,,,0.00,WUHU21623XXSP,2014-01-24 14:55:00,
2014-01-24 09:56:00,15.9,1.8,30.17,NW,315,4.0,5.8,53,0.00,,,0.00,WUHU21623XXSP,2014-01-24 14:56:00,
2014-01-24 09:58:00,15.9,1.8,30.17,SW,225,6.3,6.3,53,0.00,,,0.00,WUHU21623XXSP,2014-01-24 14:58:00,
2014-01-24 10:00:00,15.9,1.8,30.17,WSW,247,1.8,6.3,53,0.00,,,0.00,WUHU21623XXSP,2014-01-24 15:00:00,
2014-01-24 10:02:00,15.9,1.8,30.17,NNE,22,6.0,6.3,53,0.00,,,0.00,WUHU21623XXSP,2014-01-24 15:02:00,
2014-01-24 10:05:00,15.9,1.8,30.17,North,0,0.0,6.3,53,0.00,,,0.00,WUHU21623XXSP,2014-01-24 15:05:00,
2014-01-24 10:07:00,15.8,1.7,30.16,North,0,0.0,6.3,53,0.00,,,0.00,WUHU21623XXSP,2014-01-24 15:07:00,
2014-01-24 10:09:00,15.8,1.7,30.16,NNW,337,0.0,6.0,53,0.00,,,0.00,WUHU21623XXSP,2014-01-24 15:09:00,
2014-01-24 10:10:00,16.0,3.8,30.21,NNW,338,5.1,5.1,58,0.00,,,0.00,WUHU21623XXSP,2014-01-24 15:10:00,
2014-01-24 10:11:00,15.9,1.8,30.16,NE,45,4.9,6.0,53,0.00,,,0.00,WUHU21623XXSP,2014-01-24 15:11:00,
2014-01-24 10:13:00,15.9,1.8,30.16,SE,135,0.0,4.9,53,0.00,,,0.00,WUHU21623XXSP,2014-01-24 15:13:00,
2014-01-24 10:15:00,15.9,1.8,30.16,North,0,4.7,4.9,53,0.00,,,0.00,WUHU21623XXSP,2014-01-24 15:15:00,
2014-01-24 10:17:00,15.9,1.8,30.16,NNW,337,0.0,4.9,53,0.00,,,0.00,WUHU21623XXSP,2014-01-24 15:17:00,
2014-01-24 10:20:00,15.9,1.8,30.16,SW,225,6.0,6.0,53,0.00,,,0.00,WUHU21623XXSP,2014-01-24 15:20:00,
2014-01-24 10:22:00,15.6,1.1,30.15,NNE,22,10.3,10.3,52,0.00,,,0.00,WUHU21623XXSP,2014-01-24 15:22:00,
2014-01-24 10:24:00,15.4,0.9,30.15,NW,315,8.9,10.3,52,0.00,,,0.00,WUHU21623XXSP,2014-01-24 15:24:00,
2014-01-24 10:26:00,15.2,0.7,30.15,SSE,157,1.6,10.3,52,0.00,,,0.00,WUHU21623XXSP,2014-01-24 15:26:00,
2014-01-24 10:28:00,15.2,0.7,30.15,North,0,5.4,10.3,52,0.00,,,0.00,WUHU21623XXSP,2014-01-24 15:28:00,
2014-01-24 10:30:00,15.0,0.1,30.15,NNW,337,3.4,10.3,51,0.00,,,0.00,WUHU21623XXSP,2014-01-24 15:30:00,
2014-01-24 10:33:00,14.7,-0.2,30.15,SSE,157,2.5,8.9,51,0.00,,,0.00,WUHU21623XXSP,2014-01-24 15:33:00,
2014-01-24 10:34:00,14.7,-0.2,30.15,SSE,157,2.5,5.4,51,0.00,,,0.00,WUHU21623XXSP,2014-01-24 15:34:00,
2014-01-24 10:37:00,14.7,-0.2,30.15,NW,315,3.4,5.4,51,0.00,,,0.00,WUHU21623XXSP,2014-01-24 15:37:00,
2014-01-24 10:39:00,14.7,0.2,30.15,North,0,2.7,3.4,52,0.00,,,0.00,WUHU21623XXSP,2014-01-24 15:39:00,
2014-01-24 10:41:00,14.7,0.2,30.15,North,0,2.7,3.4,52,0.00,,,0.00,WUHU21623XXSP,2014-01-24 15:41:00,
2014-01-24 10:43:00,14.9,0.4,30.15,NNW,337,0.0,3.4,52,0.00,,,0.00,WUHU21623XXSP,2014-01-24 15:43:00,
2014-01-24 10:45:00,14.9,0.4,30.15,WNW,292,0.0,3.4,52,0.00,,,0.00,WUHU21623XXSP,2014-01-24 15:45:00,
2014-01-24 10:47:00,14.9,0.4,30.15,NW,315,2.2,2.7,52,0.00,,,0.00,WUHU21623XXSP,2014-01-24 15:47:00,
2014-01-24 10:50:00,15.0,0.5,30.15,NE,45,0.0,2.7,52,0.00,,,0.00,WUHU21623XXSP,2014-01-24 15:50:00,
2014-01-24 10:52:00,15.2,0.7,30.15,NE,45,0.0,2.2,52,0.00,,,0.00,WUHU21623XXSP,2014-01-24 15:52:00,
2014-01-24 10:54:00,15.2,0.7,30.15,NNW,337,2.9,2.9,52,0.00,,,0.00,WUHU21623XXSP,2014-01-24 15:54:00,
2014-01-24 10:56:00,15.2,0.7,30.15,SSE,157,1.3,2.9,52,0.00,,,0.00,WUHU21623XXSP,2014-01-24 15:56:00,
2014-01-24 10:58:00,15.4,0.9,30.15,South,180,0.0,2.9,52,0.00,,,0.00,WUHU21623XXSP,2014-01-24 15:58:00,
2014-01-24 11:00:00,15.4,0.9,30.14,NW,315,1.6,2.9,52,0.00,,,0.00,WUHU21623XXSP,2014-01-24 16:00:00,
2014-01-24 11:02:00,15.4,0.9,30.14,NW,315,1.6,2.9,52,0.00,,,0.00,WUHU21623XXSP,2014-01-24 16:02:00,
2014-01-24 11:04:00,15.4,0.9,30.14,NW,315,1.6,1.6,52,0.00,,,0.00,WUHU21623XXSP,2014-01-24 16:04:00,
2014-01-24 11:07:00,15.2,0.2,30.14,NNW,337,5.6,5.6,51,0.00,,,0.00,WUHU21623XXSP,2014-01-24 16:07:00,
2014-01-24 11:10:00,15.2,0.2,30.15,NW,315,8.1,8.1,51,0.00,,,0.00,WUHU21623XXSP,2014-01-24 16:10:00,
2014-01-24 11:11:00,15.2,0.2,30.15,NW,315,8.1,8.1,51,0.00,,,0.00,WUHU21623XXSP,2014-01-24 16:11:00,
2014-01-24 11:13:00,15.0,0.1,30.14,WNW,292,2.0,8.1,51,0.00,,,0.00,WUHU21623XXSP,2014-01-24 16:13:00,
2014-01-24 11:15:00,15.0,0.1,30.14,WNW,292,2.0,8.1,51,0.00,,,0.00,WUHU21623XXSP,2014-01-24 16:15:00,
2014-01-24 11:17:00,15.0,0.1,30.14,SE,135,1.6,8.1,51,0.00,,,0.00,WUHU21623XXSP,2014-01-24 16:17:00,
2014-01-24 11:19:00,15.0,0.1,30.14,SE,135,1.6,8.1,51,0.00,,,0.00,WUHU21623XXSP,2014-01-24 16:19:00,
2014-01-24 11:22:00,15.0,0.1,30.15,West,270,1.6,2.0,51,0.00,,,0.00,WUHU21623XXSP,2014-01-24 16:22:00,
2014-01-24 11:24:00,14.9,0.0,30.15,ENE,67,4.9,4.9,51,0.00,,,0.00,WUHU21623XXSP,2014-01-24 16:24:00,
2014-01-24 11:26:00,14.7,-0.2,30.15,SSE,157,0.0,4.9,51,0.00,,,0.00,WUHU21623XXSP,2014-01-24 16:26:00,
2014-01-24 11:28:00,14.7,-0.2,30.14,West,270,0.0,4.9,51,0.00,,,0.00,WUHU21623XXSP,2014-01-24 16:28:00,
2014-01-24 11:30:00,14.7,-0.6,30.14,NNW,337,6.7,6.7,50,0.00,,,0.00,WUHU21623XXSP,2014-01-24 16:30:00,
2014-01-24 11:32:00,14.5,-0.8,30.14,North,0,5.4,6.7,50,0.00,,,0.00,WUHU21623XXSP,2014-01-24 16:32:00,
2014-01-24 11:34:00,14.3,-1.0,30.14,NE,45,0.0,6.7,50,0.00,,,0.00,WUHU21623XXSP,2014-01-24 16:34:00,
2014-01-24 11:37:00,14.3,-1.0,30.14,NNW,337,2.0,6.7,50,0.00,,,0.00,WUHU21623XXSP,2014-01-24 16:37:00,
2014-01-24 11:39:00,14.5,-0.8,30.14,SE,135,1.8,6.7,50,0.00,,,0.00,WUHU21623XXSP,2014-01-24 16:39:00,
2014-01-24 11:41:00,14.3,-1.0,30.14,SSW,202,0.0,5.4,50,0.00,,,0.00,WUHU21623XXSP,2014-01-24 16:41:00,
2014-01-24 11:44:00,14.3,-1.0,30.14,North,0,2.7,2.7,50,0.00,,,0.00,WUHU21623XXSP,2014-01-24 16:44:00,
2014-01-24 11:45:00,14.5,-0.8,30.14,ESE,112,0.0,2.7,50,0.00,,,0.00,WUHU21623XXSP,2014-01-24 16:45:00,
2014-01-24 11:47:00,14.3,-0.6,30.14,ESE,112,0.0,2.7,51,0.00,,,0.00,WUHU21623XXSP,2014-01-24 16:47:00,
2014-01-24 11:49:00,14.3,-1.0,30.14,WNW,292,2.7,2.7,50,0.00,,,0.00,WUHU21623XXSP,2014-01-24 16:49:00,
2014-01-24 11:52:00,14.3,-1.0,30.14,SSE,157,0.0,2.7,50,0.00,,,0.00,WUHU21623XXSP,2014-01-24 16:52:00,
2014-01-24 11:54:00,14.3,-1.0,30.14,NNE,22,3.4,3.4,50,0.00,,,0.00,WUHU21623XXSP,2014-01-24 16:54:00,
2014-01-24 11:56:00,14.3,-1.0,30.14,NNE,22,3.4,3.4,50,0.00,,,0.00,WUHU21623XXSP,2014-01-24 16:56:00,
2014-01-24 11:58:00,14.3,-0.6,30.14,North,0,5.8,5.8,51,0.00,,,0.00,WUHU21623XXSP,2014-01-24 16:58:00,
2014-01-24 12:00:00,14.3,-0.6,30.14,WNW,292,0.0,5.8,51,0.00,,,0.00,WUHU21623XXSP,2014-01-24 17:00:00,
2014-01-24 12:02:00,14.3,-0.6,30.14,NW,315,8.1,8.1,51,0.00,,,0.00,WUHU21623XXSP,2014-01-24 17:02:00,
2014-01-24 12:04:00,14.3,-0.6,30.14,North,0,3.4,8.1,51,0.00,,,0.00,WUHU21623XXSP,2014-01-24 17:04:00,
2014-01-24 12:07:00,14.3,-0.5,30.14,NNW,337,2.0,8.1,51,0.00,,,0.00,WUHU21623XXSP,2014-01-24 17:07:00,
2014-01-24 12:09:00,14.3,-1.0,30.14,North,0,2.0,8.1,50,0.00,,,0.00,WUHU21623XXSP,2014-01-24 17:09:00,
2014-01-24 12:10:00,19.9,5.5,30.17,WSW,248,1.8,1.8,53,0.00,,,0.00,WUHU21623XXSP,2014-01-24 17:10:00,
2014-01-24 12:11:00,14.3,-0.5,30.14,WNW,292,3.8,8.1,51,0.00,,,0.00,WUHU21623XXSP,2014-01-24 17:11:00,
2014-01-24 12:13:00,14.4,-0.5,30.14,NNW,337,8.5,8.5,51,0.00,,,0.00,WUHU21623XXSP,2014-01-24 17:13:00,
2014-01-24 12:15:00,14.4,-1.0,30.14,East,90,0.0,8.5,50,0.00,,,0.00,WUHU21623XXSP,2014-01-24 17:15:00,
2014-01-24 12:19:00,14.4,-1.0,30.14,North,0,2.2,8.5,50,0.00,,,0.00,WUHU21623XXSP,2014-01-24 17:19:00,
2014-01-24 12:22:00,14.2,-1.1,30.14,NW,315,3.8,8.5,50,0.00,,,0.00,WUHU21623XXSP,2014-01-24 17:22:00,
2014-01-24 12:24:00,14.2,-1.1,30.14,NW,315,3.8,3.8,50,0.00,,,0.00,WUHU21623XXSP,2014-01-24 17:24:00,
2014-01-24 12:26:00,14.2,-1.1,30.14,East,90,0.0,3.8,50,0.00,,,0.00,WUHU21623XXSP,2014-01-24 17:26:00,
2014-01-24 12:28:00,14.2,-1.1,30.14,East,90,0.0,3.8,50,0.00,,,0.00,WUHU21623XXSP,2014-01-24 17:28:00,
2014-01-24 12:30:00,14.2,-1.1,30.14,East,90,0.0,3.8,50,0.00,,,0.00,WUHU21623XXSP,2014-01-24 17:30:00,
2014-01-24 12:32:00,14.2,-0.7,30.14,NNW,337,2.0,3.8,51,0.00,,,0.00,WUHU21623XXSP,2014-01-24 17:32:00,
2014-01-24 12:34:00,14.2,-0.7,30.14,West,270,4.9,4.9,51,0.00,,,0.00,WUHU21623XXSP,2014-01-24 17:34:00,
2014-01-24 12:37:00,14.4,-0.5,30.15,SSW,202,0.0,4.9,51,0.00,,,0.00,WUHU21623XXSP,2014-01-24 17:37:00,
2014-01-24 12:39:00,14.4,-0.5,30.14,NNW,337,3.1,4.9,51,0.00,,,0.00,WUHU21623XXSP,2014-01-24 17:39:00,
2014-01-24 12:41:00,14.4,-0.5,30.15,North,0,2.2,4.9,51,0.00,,,0.00,WUHU21623XXSP,2014-01-24 17:41:00,
2014-01-24 12:43:00,14.4,-0.5,30.15,NW,315,2.2,4.9,51,0.00,,,0.00,WUHU21623XXSP,2014-01-24 17:43:00,
2014-01-24 12:45:00,14.4,-0.5,30.14,NNW,337,1.6,3.1,51,0.00,,,0.00,WUHU21623XXSP,2014-01-24 17:45:00,
2014-01-24 12:47:00,14.4,-0.5,30.14,West,270,0.0,3.1,51,0.00,,,0.00,WUHU21623XXSP,2014-01-24 17:47:00,
2014-01-24 12:49:00,14.4,-0.5,30.14,WNW,292,3.1,3.1,51,0.00,,,0.00,WUHU21623XXSP,2014-01-24 17:49:00,
2014-01-24 12:52:00,14.4,-0.5,30.14,NNE,22,2.9,3.1,51,0.00,,,0.00,WUHU21623XXSP,2014-01-24 17:52:00,
2014-01-24 12:54:00,14.4,-0.9,30.14,NW,315,0.0,3.1,50,0.00,,,0.00,WUHU21623XXSP,2014-01-24 17:54:00,
2014-01-24 12:56:00,14.4,-0.9,30.14,ESE,112,0.0,3.1,50,0.00,,,0.00,WUHU21623XXSP,2014-01-24 17:56:00,
2014-01-24 12:58:00,14.4,-0.9,30.14,South,180,0.0,3.1,50,0.00,,,0.00,WUHU21623XXSP,2014-01-24 17:58:00,
2014-01-24 13:00:00,14.4,-0.9,30.14,SSW,202,2.5,2.9,50,0.00,,,0.00,WUHU21623XXSP,2014-01-24 18:00:00,
2014-01-24 13:02:00,14.4,-0.5,30.14,WNW,292,2.9,2.9,51,0.00,,,0.00,WUHU21623XXSP,2014-01-24 18:02:00,
2014-01-24 13:04:00,14.4,-0.5,30.15,South,180,3.1,3.1,51,0.00,,,0.00,WUHU21623XXSP,2014-01-24 18:04:00,
2014-01-24 13:06:00,14.5,-0.4,30.14,South,180,3.1,3.1,51,0.00,,,0.00,WUHU21623XXSP,2014-01-24 18:06:00,
2014-01-24 13:09:00,14.5,-0.4,30.14,ENE,67,0.0,3.1,51,0.00,,,0.00,WUHU21623XXSP,2014-01-24 18:09:00,
2014-01-24 13:10:00,19.4,4.6,30.14,NW,315,1.6,1.6,52,0.00,,,0.00,WUHU21623XXSP,2014-01-24 18:10:00,
2014-01-24 13:11:00,14.5,-0.4,30.14,SE,135,0.9,3.1,51,0.00,,,0.00,WUHU21623XXSP,2014-01-24 18:11:00,
2014-01-24 13:13:00,14.5,-0.9,30.14,SE,135,0.9,3.1,50,0.00,,,0.00,WUHU21623XXSP,2014-01-24 18:13:00,
2014-01-24 13:15:00,14.5,-0.4,30.14,WSW,247,3.8,3.8,51,0.00,,,0.00,WUHU21623XXSP,2014-01-24 18:15:00,
2014-01-24 13:17:00,14.7,-0.2,30.14,NNE,22,2.0,3.8,51,0.00,,,0.00,WUHU21623XXSP,2014-01-24 18:17:00,
2014-01-24 13:19:00,14.5,-0.8,30.14,NNE,22,2.0,3.8,50,0.00,,,0.00,WUHU21623XXSP,2014-01-24 18:19:00,
2014-01-24 13:21:00,14.5,-0.4,30.14,West,270,0.0,3.8,51,0.00,,,0.00,WUHU21623XXSP,2014-01-24 18:21:00,
2014-01-24 13:24:00,14.5,-0.4,30.14,SSW,202,0.0,3.8,51,0.00,,,0.00,WUHU21623XXSP,2014-01-24 18:24:00,
2014-01-24 13:27:00,14.5,-0.4,30.14,NE,45,1.6,2.0,51,0.00,,,0.00,WUHU21623XXSP,2014-01-24 18:27:00,
2014-01-24 13:28:00,14.7,-0.2,30.14,SW,225,0.0,2.0,51,0.00,,,0.00,WUHU21623XXSP,2014-01-24 18:28:00,
2014-01-24 13:30:00,14.7,-0.2,30.14,NW,315,4.7,4.7,51,0.00,,,0.00,WUHU21623XXSP,2014-01-24 18:30:00,
2014-01-24 13:32:00,14.7,-0.2,30.15,SSW,202,0.0,4.7,51,0.00,,,0.00,WUHU21623XXSP,2014-01-24 18:32:00,
2014-01-24 13:34:00,14.7,-0.2,30.14,WNW,292,0.0,4.7,51,0.00,,,0.00,WUHU21623XXSP,2014-01-24 18:34:00,
2014-01-24 13:36:00,14.7,-0.2,30.14,North,0,5.4,5.4,51,0.00,,,0.00,WUHU21623XXSP,2014-01-24 18:36:00,
2014-01-24 13:39:00,14.7,-0.2,30.14,WNW,292,0.0,5.4,51,0.00,,,0.00,WUHU21623XXSP,2014-01-24 18:39:00,
2014-01-24 13:41:00,14.7,-0.2,30.14,West,270,1.6,5.4,51,0.00,,,0.00,WUHU21623XXSP,2014-01-24 18:41:00,
2014-01-24 13:43:00,14.8,-0.2,30.14,WNW,292,3.1,5.4,51,0.00,,,0.00,WUHU21623XXSP,2014-01-24 18:43:00,
2014-01-24 13:45:00,14.8,-0.2,30.14,ENE,67,0.0,5.4,51,0.00,,,0.00,WUHU21623XXSP,2014-01-24 18:45:00,
2014-01-24 13:47:00,14.8,-0.2,30.14,West,270,0.0,3.1,51,0.00,,,0.00,WUHU21623XXSP,2014-01-24 18:47:00,
2014-01-24 13:49:00,14.8,-0.1,30.14,NNE,22,0.0,3.1,51,0.00,,,0.00,WUHU21623XXSP,2014-01-24 18:49:00,
2014-01-24 13:51:00,14.8,-0.1,30.14,West,270,0.0,3.1,51,0.00,,,0.00,WUHU21623XXSP,2014-01-24 18:51:00,
2014-01-24 13:54:00,15.0,0.0,30.14,SW,225,0.0,0.0,51,0.00,,,0.00,WUHU21623XXSP,2014-01-24 18:54:00,
2014-01-24 13:56:00,15.0,0.1,30.14,SE,135,0.0,0.0,51,0.00,,,0.00,WUHU21623XXSP,2014-01-24 18:56:00,
2014-01-24 13:58:00,15.0,0.5,30.14,WNW,292,0.0,0.0,52,0.00,,,0.00,WUHU21623XXSP,2014-01-24 18:58:00,
2014-01-24 14:00:00,15.2,0.7,30.14,NNE,22,0.0,0.0,52,0.00,,,0.00,WUHU21623XXSP,2014-01-24 19:00:00,
2014-01-24 14:03:00,15.3,0.8,30.14,West,270,0.0,0.0,52,0.00,,,0.00,WUHU21623XXSP,2014-01-24 19:03:00,
2014-01-24 14:04:00,15.3,0.8,30.13,WNW,292,0.0,0.0,52,0.00,,,0.00,WUHU21623XXSP,2014-01-24 19:04:00,
2014-01-24 14:07:00,15.3,0.8,30.14,East,90,0.0,0.0,52,0.00,,,0.00,WUHU21623XXSP,2014-01-24 19:07:00,
2014-01-24 14:09:00,15.3,0.8,30.14,NNW,337,0.0,0.0,52,0.00,,,0.00,WUHU21623XXSP,2014-01-24 19:09:00,
2014-01-24 14:10:00,18.3,3.1,30.14,WNW,293,0.0,0.0,51,0.00,,,0.00,WUHU21623XXSP,2014-01-24 19:10:00,
2014-01-24 14:11:00,15.2,0.7,30.14,SSW,202,0.0,0.0,52,0.00,,,0.00,WUHU21623XXSP,2014-01-24 19:11:00,
2014-01-24 14:13:00,15.3,0.7,30.13,NNW,337,0.0,0.0,52,0.00,,,0.00,WUHU21623XXSP,2014-01-24 19:13:00,
2014-01-24 14:15:00,15.3,0.7,30.13,NNW,337,0.0,0.0,52,0.00,,,0.00,WUHU21623XXSP,2014-01-24 19:15:00,
2014-01-24 14:17:00,15.1,0.6,30.13,West,270,0.0,0.0,52,0.00,,,0.00,WUHU21623XXSP,2014-01-24 19:17:00,
2014-01-24 14:19:00,15.3,0.7,30.13,WNW,292,0.0,0.0,52,0.00,,,0.00,WUHU21623XXSP,2014-01-24 19:19:00,
2014-01-24 14:21:00,15.1,0.6,30.14,WNW,292,0.0,0.0,52,0.00,,,0.00,WUHU21623XXSP,2014-01-24 19:21:00,
2014-01-24 14:24:00,15.3,0.8,30.13,NE,45,0.0,0.0,52,0.00,,,0.00,WUHU21623XXSP,2014-01-24 19:24:00,
2014-01-24 14:26:00,15.3,0.8,30.13,SE,135,0.0,0.0,52,0.00,,,0.00,WUHU21623XXSP,2014-01-24 19:26:00,
2014-01-24 14:28:00,15.4,0.9,30.13,SE,135,0.0,0.0,52,0.00,,,0.00,WUHU21623XXSP,2014-01-24 19:28:00,
2014-01-24 14:30:00,15.4,0.9,30.13,WSW,247,0.0,0.0,52,0.00,,,0.00,WUHU21623XXSP,2014-01-24 19:30:00,
2014-01-24 14:32:00,15.4,0.9,30.13,West,270,0.0,0.0,52,0.00,,,0.00,WUHU21623XXSP,2014-01-24 19:32:00,
2014-01-24 14:34:00,15.4,0.9,30.13,North,0,0.0,0.0,52,0.00,,,0.00,WUHU21623XXSP,2014-01-24 19:34:00,
2014-01-24 14:38:00,15.4,0.9,30.13,SSE,157,0.0,0.0,52,0.00,,,0.00,WUHU21623XXSP,2014-01-24 19:38:00,
2014-01-24 14:39:00,15.5,0.9,30.13,WSW,247,0.0,0.0,52,0.00,,,0.00,WUHU21623XXSP,2014-01-24 19:39:00,
2014-01-24 14:41:00,15.5,1.3,30.13,WSW,247,0.0,0.0,53,0.00,,,0.00,WUHU21623XXSP,2014-01-24 19:41:00,
2014-01-24 14:43:00,15.5,1.3,30.13,West,270,0.0,0.0,53,0.00,,,0.00,WUHU21623XXSP,2014-01-24 19:43:00,
2014-01-24 14:45:00,15.5,1.4,30.13,West,270,0.0,0.0,53,0.00,,,0.00,WUHU21623XXSP,2014-01-24 19:45:00,
2014-01-24 14:47:00,15.5,1.4,30.13,NNW,337,0.0,0.0,53,0.00,,,0.00,WUHU21623XXSP,2014-01-24 19:47:00,
2014-01-24 14:49:00,15.7,1.6,30.13,NNW,337,0.0,0.0,53,0.00,,,0.00,WUHU21623XXSP,2014-01-24 19:49:00,
2014-01-24 14:52:00,15.7,1.6,30.12,North,0,0.0,0.0,53,0.00,,,0.00,WUHU21623XXSP,2014-01-24 19:52:00,
2014-01-24 14:54:00,15.7,1.6,30.12,South,180,0.0,0.0,53,0.00,,,0.00,WUHU21623XXSP,2014-01-24 19:54:00,
2014-01-24 14:56:00,15.7,1.6,30.13,NNW,337,0.0,0.0,53,0.00,,,0.00,WUHU21623XXSP,2014-01-24 19:56:00,
2014-01-24 14:58:00,15.5,1.4,30.13,West,270,0.0,0.0,53,0.00,,,0.00,WUHU21623XXSP,2014-01-24 19:58:00,
2014-01-24 15:00:00,15.5,1.4,30.12,NW,315,0.0,0.0,53,0.00,,,0.00,WUHU21623XXSP,2014-01-24 20:00:00,
2014-01-24 15:02:00,15.5,1.4,30.12,North,0,0.0,0.0,53,0.00,,,0.00,WUHU21623XXSP,2014-01-24 20:02:00,
2014-01-24 15:04:00,15.6,1.4,30.13,North,0,0.0,0.0,53,0.00,,,0.00,WUHU21623XXSP,2014-01-24 20:04:00,
2014-01-24 15:06:00,15.6,1.4,30.13,NW,315,0.0,0.0,53,0.00,,,0.00,WUHU21623XXSP,2014-01-24 20:06:00,
2014-01-24 15:09:00,15.6,1.4,30.13,NW,315,0.0,0.0,53,0.00,,,0.00,WUHU21623XXSP,2014-01-24 20:09:00,
2014-01-24 15:10:00,18.3,3.1,30.14,WNW,293,2.9,2.9,51,0.00,,,0.00,WUHU21623XXSP,2014-01-24 20:10:00,
2014-01-24 15:11:00,15.6,1.5,30.13,West,270,0.0,0.0,53,0.00,,,0.00,WUHU21623XXSP,2014-01-24 20:11:00,
2014-01-24 15:13:00,15.6,1.9,30.14,WNW,292,0.0,0.0,54,0.00,,,0.00,WUHU21623XXSP,2014-01-24 20:13:00,
2014-01-24 15:15:00,15.5,1.8,30.14,West,270,0.0,0.0,54,0.00,,,0.00,WUHU21623XXSP,2014-01-24 20:15:00,
2014-01-24 15:17:00,15.5,1.8,30.14,West,270,0.0,0.0,54,0.00,,,0.00,WUHU21623XXSP,2014-01-24 20:17:00,
2014-01-24 15:19:00,15.6,1.9,30.14,NW,315,0.0,0.0,54,0.00,,,0.00,WUHU21623XXSP,2014-01-24 20:19:00,
2014-01-24 15:21:00,15.5,1.8,30.13,NW,315,0.0,0.0,54,0.00,,,0.00,WUHU21623XXSP,2014-01-24 20:21:00,
2014-01-24 15:24:00,15.5,1.8,30.14,NW,315,0.0,0.0,54,0.00,,,0.00,WUHU21623XXSP,2014-01-24 20:24:00,
2014-01-24 15:26:00,15.6,1.8,30.14,NW,315,0.0,0.0,54,0.00,,,0.00,WUHU21623XXSP,2014-01-24 20:26:00,
2014-01-24 15:28:00,15.6,1.8,30.14,WSW,247,0.0,0.0,54,0.00,,,0.00,WUHU21623XXSP,2014-01-24 20:28:00,
2014-01-24 15:30:00,15.6,1.9,30.14,WSW,247,0.0,0.0,54,0.00,,,0.00,WUHU21623XXSP,2014-01-24 20:30:00,
2014-01-24 15:32:00,15.4,1.7,30.14,WSW,247,0.0,0.0,54,0.00,,,0.00,WUHU21623XXSP,2014-01-24 20:32:00,
2014-01-24 15:34:00,15.6,1.9,30.14,South,180,0.0,0.0,54,0.00,,,0.00,WUHU21623XXSP,2014-01-24 20:34:00,
2014-01-24 15:36:00,15.4,1.7,30.14,South,180,0.0,0.0,54,0.00,,,0.00,WUHU21623XXSP,2014-01-24 20:36:00,
2014-01-24 15:39:00,15.4,1.7,30.14,South,180,0.0,0.0,54,0.00,,,0.00,WUHU21623XXSP,2014-01-24 20:39:00,
2014-01-24 15:41:00,15.4,1.7,30.14,South,180,0.0,0.0,54,0.00,,,0.00,WUHU21623XXSP,2014-01-24 20:41:00,
2014-01-24 15:43:00,15.4,1.7,30.14,South,180,0.0,0.0,54,0.00,,,0.00,WUHU21623XXSP,2014-01-24 20:43:00,
2014-01-24 15:47:00,15.5,1.8,30.14,South,180,0.0,0.0,54,0.00,,,0.00,WUHU21623XXSP,2014-01-24 20:47:00,
2014-01-24 15:49:00,15.5,2.2,30.14,South,180,0.0,0.0,55,0.00,,,0.00,WUHU21623XXSP,2014-01-24 20:49:00,
2014-01-24 15:51:00,15.5,2.2,30.14,South,180,0.0,0.0,55,0.00,,,0.00,WUHU21623XXSP,2014-01-24 20:51:00,
2014-01-24 15:53:00,15.3,2.0,30.14,WNW,292,0.0,0.0,55,0.00,,,0.00,WUHU21623XXSP,2014-01-24 20:53:00,
2014-01-24 15:56:00,15.3,2.0,30.15,WNW,292,0.0,0.0,55,0.00,,,0.00,WUHU21623XXSP,2014-01-24 20:56:00,
2014-01-24 15:58:00,15.1,1.8,30.15,WNW,292,0.0,0.0,55,0.00,,,0.00,WUHU21623XXSP,2014-01-24 20:58:00,
2014-01-24 16:00:00,15.1,1.8,30.15,WNW,292,0.0,0.0,55,0.00,,,0.00,WUHU21623XXSP,2014-01-24 21:00:00,
2014-01-24 16:02:00,15.1,1.9,30.15,West,270,0.0,0.0,55,0.00,,,0.00,WUHU21623XXSP,2014-01-24 21:02:00,
2014-01-24 16:04:00,15.2,1.9,30.15,West,270,0.0,0.0,55,0.00,,,0.00,WUHU21623XXSP,2014-01-24 21:04:00,
2014-01-24 16:06:00,15.0,1.7,30.15,West,270,0.0,0.0,55,0.00,,,0.00,WUHU21623XXSP,2014-01-24 21:06:00,
2014-01-24 16:08:00,15.0,1.7,30.15,West,270,0.0,0.0,55,0.00,,,0.00,WUHU21623XXSP,2014-01-24 21:08:00,
2014-01-24 16:10:00,19.0,4.2,30.14,West,270,0.0,0.0,52,0.00,,,0.00,WUHU21623XXSP,2014-01-24 21:10:00,
2014-01-24 16:11:00,14.9,1.6,30.15,West,270,0.0,0.0,55,0.00,,,0.00,WUHU21623XXSP,2014-01-24 21:11:00,
2014-01-24 16:13:00,14.9,1.6,30.15,West,270,0.0,0.0,55,0.00,,,0.00,WUHU21623XXSP,2014-01-24 21:13:00,
2014-01-24 16:15:00,14.9,1.6,30.15,SSE,157,0.0,0.0,55,0.00,,,0.00,WUHU21623XXSP,2014-01-24 21:15:00,
2014-01-24 16:17:00,14.7,1.5,30.15,SSE,157,0.0,0.0,55,0.00,,,0.00,WUHU21623XXSP,2014-01-24 21:17:00,
2014-01-24 16:19:00,14.7,1.5,30.15,SSE,157,0.0,0.0,55,0.00,,,0.00,WUHU21623XXSP,2014-01-24 21:19:00,
2014-01-24 17:10:00,19.0,4.6,30.13,North,0,0.0,0.0,53,0.00,,,0.00,WUHU21623XXSP,2014-01-24 22:10:00,
2014-01-24 18:10:00,18.3,4.8,30.16,West,270,0.0,0.0,55,0.00,,,0.00,WUHU21623XXSP,2014-01-24 23:10:00,
2014-01-24 18:29:00,15.6,1.9,30.15,SSE,157,0.0,0.0,54,0.00,,,0.00,WUHU21623XXSP,2014-01-24 23:29:00,
2014-01-24 18:34:00,15.2,1.5,30.15,SSE,157,0.0,0.0,54,0.00,,,0.00,WUHU21623XXSP,2014-01-24 23:34:00,
2014-01-24 18:39:00,15.2,1.5,30.15,SSE,157,0.0,0.0,54,0.00,,,0.00,WUHU21623XXSP,2014-01-24 23:39:00,
2014-01-24 18:44:00,15.3,1.6,30.15,SSE,157,0.0,0.0,54,0.00,,,0.00,WUHU21623XXSP,2014-01-24 23:44:00,
2014-01-24 18:49:00,15.1,1.4,30.15,WNW,292,0.0,0.0,54,0.00,,,0.00,WUHU21623XXSP,2014-01-24 23:49:00,
2014-01-24 18:54:00,15.2,1.5,30.14,NNW,337,0.0,0.0,54,0.00,,,0.00,WUHU21623XXSP,2014-01-24 23:54:00,
2014-01-24 18:59:00,14.9,1.6,30.15,WNW,292,0.0,0.0,55,0.00,,,0.00,WUHU21623XXSP,2014-01-24 23:59:00,
2014-01-24 19:04:00,14.7,1.5,30.15,West,270,0.0,0.0,55,0.00,,,0.00,WUHU21623XXSP,2014-01-25 00:04:00,
2014-01-24 19:09:00,14.6,1.3,30.15,SSE,157,0.0,0.0,55,0.00,,,0.00,WUHU21623XXSP,2014-01-25 00:09:00,
2014-01-24 19:10:00,16.5,3.1,30.15,SSE,158,0.0,0.0,55,0.00,,,0.00,WUHU21623XXSP,2014-01-25 00:10:00,
2014-01-24 19:14:00,14.6,1.4,30.15,SSE,157,0.0,0.0,55,0.00,,,0.00,WUHU21623XXSP,2014-01-25 00:14:00,
2014-01-24 19:19:00,14.4,1.6,30.15,SSE,157,0.0,0.0,56,0.00,,,0.00,WUHU21623XXSP,2014-01-25 00:19:00,
2014-01-24 19:24:00,14.5,1.6,30.15,SW,225,0.0,0.0,56,0.00,,,0.00,WUHU21623XXSP,2014-01-25 00:24:00,
2014-01-24 19:29:00,14.5,1.7,30.15,WNW,292,0.0,0.0,56,0.00,,,0.00,WUHU21623XXSP,2014-01-25 00:29:00,
2014-01-24 19:34:00,14.5,1.6,30.15,WNW,292,0.0,0.0,56,0.00,,,0.00,WUHU21623XXSP,2014-01-25 00:34:00,
2014-01-24 19:39:00,14.5,1.6,30.15,SSW,202,0.0,0.0,56,0.00,,,0.00,WUHU21623XXSP,2014-01-25 00:39:00,
2014-01-24 19:44:00,14.3,1.9,30.15,SSW,202,0.0,0.0,57,0.00,,,0.00,WUHU21623XXSP,2014-01-25 00:44:00,
2014-01-24 19:49:00,14.2,1.7,30.15,SSW,202,0.0,0.0,57,0.00,,,0.00,WUHU21623XXSP,2014-01-25 00:49:00,
2014-01-24 19:54:00,14.0,1.6,30.15,SSW,202,0.0,0.0,57,0.00,,,0.00,WUHU21623XXSP,2014-01-25 00:54:00,
2014-01-24 19:59:00,14.1,1.6,30.15,SSW,202,0.0,0.0,57,0.00,,,0.00,WUHU21623XXSP,2014-01-25 00:59:00,
2014-01-24 20:04:00,14.1,1.7,30.15,SSW,202,0.0,0.0,57,0.00,,,0.00,WUHU21623XXSP,2014-01-25 01:04:00,
2014-01-24 20:09:00,13.9,1.5,30.15,SSW,202,0.0,0.0,57,0.00,,,0.00,WUHU21623XXSP,2014-01-25 01:09:00,
2014-01-24 20:10:00,15.4,2.9,30.15,SSW,203,0.0,0.0,57,0.00,,,0.00,WUHU21623XXSP,2014-01-25 01:10:00,
2014-01-24 20:14:00,14.0,1.6,30.15,SSW,202,0.0,0.0,57,0.00,,,0.00,WUHU21623XXSP,2014-01-25 01:14:00,
2014-01-24 20:19:00,14.0,1.6,30.15,SSW,202,0.0,0.0,57,0.00,,,0.00,WUHU21623XXSP,2014-01-25 01:19:00,
2014-01-24 20:24:00,14.0,1.5,30.14,SSW,202,0.0,0.0,57,0.00,,,0.00,WUHU21623XXSP,2014-01-25 01:24:00,
2014-01-24 20:29:00,14.0,1.6,30.14,SSW,202,0.0,0.0,57,0.00,,,0.00,WUHU21623XXSP,2014-01-25 01:29:00,
2014-01-24 20:34:00,13.8,1.4,30.14,SSW,202,0.0,0.0,57,0.00,,,0.00,WUHU21623XXSP,2014-01-25 01:34:00,
2014-01-24 20:39:00,14.1,1.6,30.14,West,270,0.0,0.0,57,0.00,,,0.00,WUHU21623XXSP,2014-01-25 01:39:00,
2014-01-24 20:44:00,13.9,1.5,30.14,South,180,0.0,0.0,57,0.00,,,0.00,WUHU21623XXSP,2014-01-25 01:44:00,
2014-01-24 20:49:00,14.0,1.9,30.14,SSE,157,0.0,0.0,58,0.00,,,0.00,WUHU21623XXSP,2014-01-25 01:49:00,
2014-01-24 20:54:00,14.0,2.0,30.14,NNW,337,0.0,0.0,58,0.00,,,0.00,WUHU21623XXSP,2014-01-25 01:54:00,
2014-01-24 20:59:00,14.1,2.0,30.13,NNW,337,0.0,0.0,58,0.00,,,0.00,WUHU21623XXSP,2014-01-25 01:59:00,
2014-01-24 21:04:00,14.1,2.0,30.14,NNW,337,0.0,0.0,58,0.00,,,0.00,WUHU21623XXSP,2014-01-25 02:04:00,
2014-01-24 21:09:00,14.1,2.1,30.13,NNW,337,0.0,0.0,58,0.00,,,0.00,WUHU21623XXSP,2014-01-25 02:09:00,
2014-01-24 21:10:00,15.1,3.0,30.13,NNW,338,0.0,0.0,58,0.00,,,0.00,WUHU21623XXSP,2014-01-25 02:10:00,
2014-01-24 21:14:00,14.2,2.1,30.13,NNW,337,0.0,0.0,58,0.00,,,0.00,WUHU21623XXSP,2014-01-25 02:14:00,
2014-01-24 21:19:00,14.4,2.7,30.12,NNW,337,0.0,0.0,59,0.00,,,0.00,WUHU21623XXSP,2014-01-25 02:19:00,
2014-01-24 21:24:00,14.5,2.8,30.12,NNW,337,0.0,0.0,59,0.00,,,0.00,WUHU21623XXSP,2014-01-25 02:24:00,
2014-01-24 21:29:00,14.6,2.9,30.12,SSW,202,0.0,0.0,59,0.00,,,0.00,WUHU21623XXSP,2014-01-25 02:29:00,
2014-01-24 21:34:00,14.7,2.9,30.12,SSW,202,0.0,0.0,59,0.00,,,0.00,WUHU21623XXSP,2014-01-25 02:34:00,
2014-01-24 21:39:00,14.7,3.3,30.12,SSW,202,0.0,0.0,60,0.00,,,0.00,WUHU21623XXSP,2014-01-25 02:39:00,
2014-01-24 21:44:00,14.9,3.6,30.11,SSW,202,0.0,0.0,60,0.00,,,0.00,WUHU21623XXSP,2014-01-25 02:44:00,
2014-01-24 21:49:00,15.0,3.6,30.11,South,180,0.0,0.0,60,0.00,,,0.00,WUHU21623XXSP,2014-01-25 02:49:00,
2014-01-24 21:54:00,15.0,3.7,30.11,South,180,0.0,0.0,60,0.00,,,0.00,WUHU21623XXSP,2014-01-25 02:54:00,
2014-01-24 21:59:00,15.1,3.7,30.10,South,180,0.0,0.0,60,0.00,,,0.00,WUHU21623XXSP,2014-01-25 02:59:00,
2014-01-24 22:04:00,15.1,3.7,30.10,SSE,157,0.0,0.0,60,0.00,,,0.00,WUHU21623XXSP,2014-01-25 03:04:00,
2014-01-24 22:09:00,15.1,3.8,30.10,SE,135,0.0,0.0,60,0.00,,,0.00,WUHU21623XXSP,2014-01-25 03:09:00,
2014-01-24 22:10:00,15.6,4.2,30.10,SE,135,0.0,0.0,60,0.00,,,0.00,WUHU21623XXSP,2014-01-25 03:10:00,
2014-01-24 22:14:00,15.4,4.0,30.10,SE,135,0.0,0.0,60,0.00,,,0.00,WUHU21623XXSP,2014-01-25 03:14:00,
2014-01-24 22:19:00,15.4,4.1,30.09,SE,135,0.0,0.0,60,0.00,,,0.00,WUHU21623XXSP,2014-01-25 03:19:00,
2014-01-24 22:24:00,15.7,4.3,30.09,SE,135,0.0,0.0,60,0.00,,,0.00,WUHU21623XXSP,2014-01-25 03:24:00,
2014-01-24 22:29:00,15.7,4.3,30.09,SE,135,0.0,0.0,60,0.00,,,0.00,WUHU21623XXSP,2014-01-25 03:29:00,
2014-01-24 22:34:00,16.0,4.6,30.09,SE,135,0.0,0.0,60,0.00,,,0.00,WUHU21623XXSP,2014-01-25 03:34:00,
2014-01-24 22:39:00,16.0,4.6,30.09,SE,135,0.0,0.0,60,0.00,,,0.00,WUHU21623XXSP,2014-01-25 03:39:00,
2014-01-24 22:44:00,16.2,4.7,30.08,SE,135,0.0,0.0,60,0.00,,,0.00,WUHU21623XXSP,2014-01-25 03:44:00,
2014-01-24 22:49:00,16.2,4.8,30.08,SE,135,0.0,0.0,60,0.00,,,0.00,WUHU21623XXSP,2014-01-25 03:49:00,
2014-01-24 22:54:00,16.2,4.8,30.08,East,90,0.0,0.0,60,0.00,,,0.00,WUHU21623XXSP,2014-01-25 03:54:00,
2014-01-24 22:59:00,16.2,4.8,30.07,South,180,0.0,0.0,60,0.00,,,0.00,WUHU21623XXSP,2014-01-25 03:59:00,
2014-01-24 23:04:00,16.3,4.8,30.07,SSE,157,0.0,0.0,60,0.00,,,0.00,WUHU21623XXSP,2014-01-25 04:04:00,
2014-01-24 23:09:00,16.2,4.8,30.07,SSE,157,0.0,0.0,60,0.00,,,0.00,WUHU21623XXSP,2014-01-25 04:09:00,
2014-01-24 23:10:00,16.3,4.9,30.07,SSE,158,0.0,0.0,60,0.00,,,0.00,WUHU21623XXSP,2014-01-25 04:10:00,
2014-01-24 23:14:00,16.2,4.8,30.06,SSE,157,0.0,0.0,60,0.00,,,0.00,WUHU21623XXSP,2014-01-25 04:14:00,
2014-01-24 23:19:00,16.1,4.7,30.06,ENE,67,0.0,0.0,60,0.00,,,0.00,WUHU21623XXSP,2014-01-25 04:19:00,
2014-01-24 23:24:00,16.3,4.9,30.06,ENE,67,0.0,0.0,60,0.00,,,0.00,WUHU21623XXSP,2014-01-25 04:24:00,
2014-01-24 23:29:00,16.2,5.2,30.06,SE,135,0.0,0.0,61,0.00,,,0.00,WUHU21623XXSP,2014-01-25 04:29:00,
2014-01-24 23:34:00,16.2,5.2,30.05,SE,135,0.0,0.0,61,0.00,,,0.00,WUHU21623XXSP,2014-01-25 04:34:00,
2014-01-24 23:39:00,16.4,5.3,30.05,SE,135,0.0,0.0,61,0.00,,,0.00,WUHU21623XXSP,2014-01-25 04:39:00,
2014-01-24 23:44:00,16.3,5.3,30.05,SE,135,0.0,0.0,61,0.00,,,0.00,WUHU21623XXSP,2014-01-25 04:44:00,
2014-01-24 23:49:00,16.5,5.4,30.04,ESE,112,0.0,0.0,61,0.00,,,0.00,WUHU21623XXSP,2014-01-25 04:49:00,
2014-01-24 23:54:00,16.4,5.4,30.04,NW,315,0.0,0.0,61,0.00,,,0.00,WUHU21623XXSP,2014-01-25 04:54:00,
2014-01-24 23:59:00,16.4,5.3,30.04,South,180,0.0,0.0,61,0.00,,,0.00,WUHU21623XXSP,2014-01-25 04:59:00,